Terminal Aerodrome Forecast
Issued by NWS Northern Indiana

Home | Current Version | Previous Version | Graphics & Text | Print | Product List | Glossary On
Versions: 1 2 3 4 5 6 7 8 9 10 11 12 13 14 15 16 17 18 19
000
FTUS43 KIWX 170520
TAFFWA
TAF
KFWA 170520Z 1706/1806 17003KT P6SM SKC
     FM171200 18006KT P6SM BKN060
     FM171900 20005KT P6SM VCTS BKN060CB
     FM180300 26003KT P6SM BKN100=

USA.gov is the U.S. government's official web portal to all federal, state and local government web resources and services.